createdAt,value
2023-03-31T00:00:12.034Z,10.68
2023-03-31T00:02:42.668Z,10.67
2023-03-31T00:05:18.310Z,10.66
2023-03-31T00:07:49.407Z,10.63
2023-03-31T00:10:20.450Z,10.62
2023-03-31T00:12:51.253Z,10.59
2023-03-31T00:15:21.793Z,10.56
2023-03-31T00:17:52.640Z,10.53
2023-03-31T00:20:23.317Z,10.48
2023-03-31T00:22:54.817Z,10.46
2023-03-31T00:25:25.872Z,10.43
2023-03-31T00:27:57.001Z,10.41
2023-03-31T00:30:27.467Z,10.40
2023-03-31T00:32:58.335Z,10.39
2023-03-31T00:35:28.807Z,10.38
2023-03-31T00:38:00.015Z,10.37
2023-03-31T00:40:30.837Z,10.36
2023-03-31T00:43:01.218Z,10.36
2023-03-31T00:45:32.775Z,10.35
2023-03-31T00:48:14.945Z,10.34
2023-03-31T00:50:51.514Z,10.33
2023-03-31T00:53:26.264Z,10.33
2023-03-31T00:56:00.200Z,10.33
2023-03-31T00:58:33.330Z,10.33
2023-03-31T01:01:05.693Z,10.34
2023-03-31T01:03:38.462Z,10.33
2023-03-31T01:06:11.393Z,10.33
2023-03-31T01:08:42.737Z,10.32
2023-03-31T01:11:17.370Z,10.30
2023-03-31T01:13:50.856Z,10.27
2023-03-31T01:16:21.380Z,10.24
2023-03-31T01:18:52.761Z,10.22
2023-03-31T01:22:01.521Z,10.21
2023-03-31T01:25:01.836Z,10.19
2023-03-31T01:27:50.846Z,10.17
2023-03-31T01:31:02.896Z,10.18
2023-03-31T01:34:06.299Z,10.18
2023-03-31T01:37:11.475Z,10.18
2023-03-31T01:40:09.790Z,10.18
2023-03-31T01:42:45.277Z,10.19
2023-03-31T01:45:27.048Z,10.19
2023-03-31T01:48:03.112Z,10.19
2023-03-31T01:50:40.388Z,10.19
2023-03-31T01:53:19.943Z,10.19
2023-03-31T01:55:56.543Z,10.19
2023-03-31T01:58:32.762Z,10.20
2023-03-31T02:01:10.605Z,10.20
2023-03-31T02:03:42.001Z,10.20
2023-03-31T02:06:16.669Z,10.20
2023-03-31T02:08:50.778Z,10.19
2023-03-31T02:11:22.155Z,10.18
2023-03-31T02:13:55.871Z,10.18
2023-03-31T02:16:32.375Z,10.16
2023-03-31T02:19:08.097Z,10.14
2023-03-31T02:21:40.920Z,10.10
2023-03-31T02:24:14.956Z,10.06
2023-03-31T02:26:51.168Z,10.01
2023-03-31T02:29:22.467Z,9.97
2023-03-31T02:31:59.374Z,9.93
2023-03-31T02:34:29.866Z,9.87
2023-03-31T02:37:00.539Z,9.82
2023-03-31T02:39:35.331Z,9.78
2023-03-31T02:42:08.006Z,9.74
2023-03-31T02:44:40.177Z,9.68
2023-03-31T02:47:13.654Z,9.64
2023-03-31T02:49:47.217Z,9.60
2023-03-31T02:52:35.373Z,9.57
2023-03-31T02:55:38.397Z,9.54
2023-03-31T02:58:28.374Z,9.51
2023-03-31T03:01:12.593Z,9.47
2023-03-31T03:03:52.370Z,9.42
2023-03-31T03:06:38.461Z,9.38
2023-03-31T03:09:24.999Z,9.33
2023-03-31T03:12:04.640Z,9.28
2023-03-31T03:14:41.400Z,9.24
2023-03-31T03:17:16.123Z,9.21
2023-03-31T03:19:51.787Z,9.18
2023-03-31T03:22:22.744Z,9.17
2023-03-31T03:24:53.528Z,9.17
2023-03-31T03:27:24.053Z,9.17
2023-03-31T03:29:55.003Z,9.19
2023-03-31T03:32:25.756Z,9.22
2023-03-31T03:34:56.982Z,9.23
2023-03-31T03:37:27.773Z,9.26
2023-03-31T03:39:58.571Z,9.29
2023-03-31T03:42:29.004Z,9.33
2023-03-31T03:44:59.493Z,9.37
2023-03-31T03:47:30.010Z,9.40
2023-03-31T03:50:00.497Z,9.41
2023-03-31T03:52:31.025Z,9.43
2023-03-31T03:55:01.785Z,9.44
2023-03-31T03:57:32.278Z,9.43
2023-03-31T04:00:08.091Z,9.42
2023-03-31T04:02:39.338Z,9.40
2023-03-31T04:05:10.837Z,9.37
2023-03-31T04:07:41.689Z,9.36
2023-03-31T04:10:12.788Z,9.34
2023-03-31T04:12:43.979Z,9.34
2023-03-31T04:15:14.813Z,9.31
2023-03-31T04:17:51.027Z,9.29
2023-03-31T04:20:22.594Z,9.26
2023-03-31T04:22:54.728Z,9.24
2023-03-31T04:25:25.732Z,9.21
2023-03-31T04:27:56.515Z,9.18
2023-03-31T04:30:31.553Z,9.15
2023-03-31T04:33:04.192Z,9.12
2023-03-31T04:35:49.494Z,9.10
2023-03-31T04:38:22.013Z,9.06
2023-03-31T04:40:54.644Z,9.02
2023-03-31T04:43:25.233Z,8.99
2023-03-31T04:45:56.004Z,8.98
2023-03-31T04:48:26.806Z,8.95
2023-03-31T04:50:57.336Z,8.92
2023-03-31T04:53:28.127Z,8.91
2023-03-31T04:55:59.289Z,8.87
2023-03-31T04:58:29.856Z,8.84
2023-03-31T05:01:00.421Z,8.83
2023-03-31T05:03:31.075Z,8.81
2023-03-31T05:06:02.034Z,8.80
2023-03-31T05:08:33.549Z,8.80
2023-03-31T05:11:06.233Z,8.80
2023-03-31T05:13:36.738Z,8.81
2023-03-31T05:16:12.313Z,8.83
2023-03-31T05:18:43.518Z,8.85
2023-03-31T05:21:16.526Z,8.86
2023-03-31T05:23:47.527Z,8.88
2023-03-31T05:26:18.290Z,8.91
2023-03-31T05:28:49.360Z,8.94
2023-03-31T05:31:20.010Z,8.98
2023-03-31T05:33:50.502Z,9.02
2023-03-31T05:36:23.800Z,9.07
2023-03-31T05:38:54.795Z,9.11
2023-03-31T05:41:25.319Z,9.16
2023-03-31T05:43:56.319Z,9.21
2023-03-31T05:46:27.430Z,9.26
2023-03-31T05:48:58.771Z,9.29
2023-03-31T05:51:29.325Z,9.34
2023-03-31T05:53:59.816Z,9.37
2023-03-31T05:56:30.974Z,9.41
2023-03-31T05:59:05.319Z,9.44
2023-03-31T06:01:36.280Z,9.48
2023-03-31T06:04:07.549Z,9.51
2023-03-31T06:06:38.065Z,9.55
2023-03-31T06:09:08.776Z,9.57
2023-03-31T06:11:39.628Z,9.59
2023-03-31T06:14:10.195Z,9.63
2023-03-31T06:16:41.185Z,9.65
2023-03-31T06:19:11.934Z,9.68
2023-03-31T06:21:42.903Z,9.70
2023-03-31T06:24:13.334Z,9.72
2023-03-31T06:26:44.183Z,9.75
2023-03-31T06:29:15.352Z,9.79
2023-03-31T06:31:46.591Z,9.82
2023-03-31T06:34:18.390Z,9.85
2023-03-31T06:36:50.013Z,9.88
2023-03-31T06:39:21.109Z,9.92
2023-03-31T06:41:52.017Z,9.95
2023-03-31T06:44:25.498Z,9.97
2023-03-31T06:46:56.135Z,10.02
2023-03-31T06:49:26.684Z,10.06
2023-03-31T06:51:57.779Z,10.11
2023-03-31T06:54:28.620Z,10.15
2023-03-31T06:56:59.073Z,10.21
2023-03-31T06:59:29.868Z,10.25
2023-03-31T07:02:00.994Z,10.27
2023-03-31T07:04:31.482Z,10.30
2023-03-31T07:07:02.065Z,10.32
2023-03-31T07:09:32.872Z,10.36
2023-03-31T07:12:05.359Z,10.39
2023-03-31T07:14:36.174Z,10.42
2023-03-31T07:17:06.708Z,10.46
2023-03-31T07:19:37.959Z,10.51
2023-03-31T07:22:08.712Z,10.52
2023-03-31T07:24:39.203Z,10.53
2023-03-31T07:27:09.643Z,10.54
2023-03-31T07:29:41.055Z,10.55
2023-03-31T07:32:12.154Z,10.56
2023-03-31T07:34:43.197Z,10.57
2023-03-31T07:37:14.725Z,10.60
2023-03-31T07:39:45.162Z,10.61
2023-03-31T07:42:15.680Z,10.64
2023-03-31T07:44:46.847Z,10.67
2023-03-31T07:47:17.647Z,10.68
2023-03-31T07:49:48.266Z,10.69
2023-03-31T07:52:19.773Z,10.66
2023-03-31T07:54:50.694Z,10.68
2023-03-31T07:57:21.529Z,10.68
2023-03-31T07:59:51.959Z,10.67
2023-03-31T08:02:22.613Z,10.67
2023-03-31T08:04:53.204Z,10.67
2023-03-31T08:07:23.741Z,10.67
2023-03-31T08:09:54.320Z,10.66
2023-03-31T08:12:24.807Z,10.67
2023-03-31T08:14:55.234Z,10.67
2023-03-31T08:17:25.811Z,10.67
2023-03-31T08:19:56.284Z,10.69
2023-03-31T08:22:27.408Z,10.71
2023-03-31T08:24:58.617Z,10.75
2023-03-31T08:27:29.517Z,10.81
2023-03-31T08:30:03.213Z,10.88
2023-03-31T08:32:34.383Z,10.95
2023-03-31T08:35:05.531Z,11.01
2023-03-31T08:37:37.433Z,11.07
2023-03-31T08:40:15.690Z,11.13
2023-03-31T08:42:49.151Z,11.18
2023-03-31T08:45:25.034Z,11.23
2023-03-31T08:48:00.360Z,11.28
2023-03-31T08:50:34.890Z,11.32
2023-03-31T08:53:09.351Z,11.35
2023-03-31T08:55:49.540Z,11.39
2023-03-31T08:58:33.710Z,11.44
2023-03-31T09:01:09.903Z,11.48
2023-03-31T09:03:50.565Z,11.52
2023-03-31T09:06:28.128Z,11.55
2023-03-31T09:09:03.562Z,11.56
2023-03-31T09:11:37.719Z,11.59
2023-03-31T09:14:20.735Z,11.61
2023-03-31T09:17:01.916Z,11.64
2023-03-31T09:19:39.706Z,11.66
2023-03-31T09:22:12.704Z,11.69
2023-03-31T09:24:52.451Z,11.70
2023-03-31T09:27:27.359Z,11.71
2023-03-31T09:30:01.146Z,11.70
2023-03-31T09:32:34.168Z,11.70
2023-03-31T09:35:18.125Z,11.68
2023-03-31T09:37:49.129Z,11.66
2023-03-31T09:40:22.483Z,11.64
2023-03-31T09:42:59.394Z,11.64
2023-03-31T09:45:31.605Z,11.63
2023-03-31T09:48:06.727Z,11.63
2023-03-31T09:50:41.271Z,11.62
2023-03-31T09:53:16.503Z,11.62
2023-03-31T09:55:52.390Z,11.61
2023-03-31T09:58:26.142Z,11.60
2023-03-31T10:01:06.299Z,11.59
2023-03-31T10:03:50.457Z,11.59
2023-03-31T10:06:21.994Z,11.60
2023-03-31T10:08:56.157Z,11.59
2023-03-31T10:11:27.172Z,11.58
2023-03-31T10:14:03.720Z,11.57
2023-03-31T10:16:35.921Z,11.56
2023-03-31T10:19:24.265Z,11.53
2023-03-31T10:22:00.752Z,11.50
2023-03-31T10:24:39.792Z,11.48
2023-03-31T10:27:20.466Z,11.44
2023-03-31T10:29:54.841Z,11.42
2023-03-31T10:32:29.180Z,11.40
2023-03-31T10:35:05.372Z,11.36
2023-03-31T10:37:38.608Z,11.32
2023-03-31T10:40:20.741Z,11.29
2023-03-31T10:43:03.517Z,11.25
2023-03-31T10:45:42.443Z,11.20
2023-03-31T10:48:24.350Z,11.16
2023-03-31T10:50:56.328Z,11.12
2023-03-31T10:53:26.914Z,11.07
2023-03-31T10:56:08.898Z,11.05
2023-03-31T10:59:06.034Z,11.01
2023-03-31T11:01:48.660Z,10.97
2023-03-31T11:04:45.511Z,10.94
2023-03-31T11:07:29.574Z,10.89
2023-03-31T11:10:21.610Z,10.85
2023-03-31T11:12:58.913Z,10.83
2023-03-31T11:15:39.276Z,10.81
2023-03-31T11:18:22.945Z,10.78
2023-03-31T11:21:05.902Z,10.74
2023-03-31T11:23:43.267Z,10.73
2023-03-31T11:26:17.978Z,10.73
2023-03-31T11:29:06.500Z,10.73
2023-03-31T11:31:47.632Z,10.73
2023-03-31T11:34:36.819Z,10.73
2023-03-31T11:37:23.314Z,10.75
2023-03-31T11:40:16.221Z,10.76
2023-03-31T11:42:53.929Z,10.78
2023-03-31T11:45:29.557Z,10.82
2023-03-31T11:48:07.844Z,10.84
2023-03-31T11:50:40.959Z,10.88
2023-03-31T11:53:17.628Z,10.90
2023-03-31T11:55:51.729Z,10.93
2023-03-31T11:58:27.792Z,10.96
2023-03-31T12:01:04.686Z,11.00
2023-03-31T12:03:40.008Z,11.04
2023-03-31T12:06:18.964Z,11.07
2023-03-31T12:08:58.568Z,11.09
2023-03-31T12:11:34.057Z,11.14
2023-03-31T12:14:17.981Z,11.19
2023-03-31T12:16:51.991Z,11.25
2023-03-31T12:19:28.680Z,11.30
2023-03-31T12:22:06.970Z,11.34
2023-03-31T12:24:38.786Z,11.38
2023-03-31T12:27:15.312Z,11.41
2023-03-31T12:29:50.260Z,11.45
2023-03-31T12:32:24.853Z,11.49
2023-03-31T12:35:02.059Z,11.55
2023-03-31T12:37:56.156Z,11.58
2023-03-31T12:40:39.463Z,11.62
2023-03-31T12:43:27.705Z,11.67
2023-03-31T12:46:14.852Z,11.71
2023-03-31T12:48:58.100Z,11.74
2023-03-31T12:51:45.648Z,11.77
2023-03-31T12:54:40.889Z,11.85
2023-03-31T12:57:23.645Z,11.93
2023-03-31T13:00:19.463Z,12.02
2023-03-31T13:02:50.940Z,12.11
2023-03-31T13:06:09.343Z,12.18
2023-03-31T13:09:00.944Z,12.28
2023-03-31T13:11:44.727Z,12.34
2023-03-31T13:14:21.331Z,12.42
2023-03-31T13:16:55.589Z,12.51
2023-03-31T13:19:34.314Z,12.61
2023-03-31T13:22:06.866Z,12.70
2023-03-31T13:24:37.680Z,12.81
2023-03-31T13:27:31.514Z,12.91
2023-03-31T13:30:02.131Z,13.01
2023-03-31T13:32:35.701Z,13.06
2023-03-31T13:35:43.649Z,13.09
2023-03-31T13:38:24.593Z,13.11
2023-03-31T13:41:09.839Z,13.18
2023-03-31T13:44:07.739Z,13.23
2023-03-31T13:46:59.528Z,13.25
2023-03-31T13:49:55.284Z,13.27
2023-03-31T13:52:45.061Z,13.27
2023-03-31T13:55:56.407Z,13.24
2023-03-31T13:58:39.793Z,13.19
2023-03-31T14:01:49.432Z,13.17
2023-03-31T14:04:55.953Z,13.15
2023-03-31T14:07:34.533Z,13.13
2023-03-31T14:10:07.346Z,13.10
2023-03-31T14:12:39.518Z,13.08
2023-03-31T14:15:21.768Z,13.09
2023-03-31T14:17:52.999Z,13.13
2023-03-31T14:20:33.954Z,13.17
2023-03-31T14:23:17.746Z,13.19
2023-03-31T14:25:55.428Z,13.23
2023-03-31T14:28:44.800Z,13.27
2023-03-31T14:31:23.533Z,13.33
2023-03-31T14:34:19.463Z,13.36
2023-03-31T14:37:00.275Z,13.41
2023-03-31T14:39:33.896Z,13.45
2023-03-31T14:42:07.228Z,13.50
2023-03-31T14:44:39.586Z,13.53
2023-03-31T14:47:16.884Z,13.56
2023-03-31T14:49:47.447Z,13.57
2023-03-31T14:52:20.988Z,13.57
2023-03-31T14:54:53.848Z,13.56
2023-03-31T14:57:31.460Z,13.52
2023-03-31T15:00:07.624Z,13.47
2023-03-31T15:02:42.397Z,13.49
2023-03-31T15:05:26.055Z,13.51
2023-03-31T15:07:59.747Z,13.53
2023-03-31T15:10:34.988Z,13.54
2023-03-31T15:13:11.280Z,13.54
2023-03-31T15:15:41.760Z,13.51
2023-03-31T15:18:15.696Z,13.50
2023-03-31T15:20:47.167Z,13.47
2023-03-31T15:23:27.599Z,13.43
2023-03-31T15:26:02.518Z,13.39
2023-03-31T15:28:40.531Z,13.36
2023-03-31T15:31:11.438Z,13.31
2023-03-31T15:33:42.448Z,13.26
2023-03-31T15:36:13.754Z,13.21
2023-03-31T15:38:45.395Z,13.18
2023-03-31T15:41:17.732Z,13.16
2023-03-31T15:43:51.470Z,13.14
2023-03-31T15:46:47.104Z,13.10
2023-03-31T15:49:24.941Z,13.08
2023-03-31T15:51:55.593Z,13.05
2023-03-31T15:54:45.402Z,13.01
2023-03-31T15:57:19.810Z,12.97
2023-03-31T15:59:55.919Z,12.94
2023-03-31T16:02:29.242Z,12.89
2023-03-31T16:05:06.189Z,12.83
2023-03-31T16:07:45.484Z,12.77
2023-03-31T16:10:21.580Z,12.74
2023-03-31T16:12:57.256Z,12.69
2023-03-31T16:15:36.084Z,12.66
2023-03-31T16:18:09.872Z,12.62
2023-03-31T16:20:43.913Z,12.57
2023-03-31T16:23:20.723Z,12.53
2023-03-31T16:25:51.848Z,12.49
2023-03-31T16:28:26.959Z,12.43
2023-03-31T16:31:01.614Z,12.42
2023-03-31T16:33:53.482Z,12.40
2023-03-31T16:36:24.147Z,12.38
2023-03-31T16:38:55.846Z,12.36
2023-03-31T16:41:28.645Z,12.35
2023-03-31T16:43:59.200Z,12.35
2023-03-31T16:46:30.088Z,12.36
2023-03-31T16:49:01.398Z,12.36
2023-03-31T16:51:32.435Z,12.36
2023-03-31T16:54:02.914Z,12.34
2023-03-31T16:56:33.391Z,12.33
2023-03-31T16:59:04.147Z,12.32
2023-03-31T17:01:34.836Z,12.31
2023-03-31T17:04:05.574Z,12.30
2023-03-31T17:06:36.315Z,12.29
2023-03-31T17:09:07.525Z,12.27
2023-03-31T17:11:38.735Z,12.24
2023-03-31T17:14:10.897Z,12.23
2023-03-31T17:16:48.047Z,12.23
2023-03-31T17:19:18.869Z,12.21
2023-03-31T17:21:49.665Z,12.19
2023-03-31T17:24:20.465Z,12.16
2023-03-31T17:26:51.547Z,12.12
2023-03-31T17:29:22.000Z,12.10
2023-03-31T17:31:52.570Z,12.07
2023-03-31T17:34:23.080Z,12.04
2023-03-31T17:36:55.578Z,12.00
2023-03-31T17:39:27.547Z,11.98
2023-03-31T17:41:58.601Z,11.96
2023-03-31T17:44:29.084Z,11.93
2023-03-31T17:46:59.604Z,11.91
2023-03-31T17:49:30.325Z,11.89
2023-03-31T17:52:01.388Z,11.86
2023-03-31T17:54:31.899Z,11.82
2023-03-31T17:57:03.393Z,11.80
2023-03-31T17:59:33.880Z,11.77
2023-03-31T18:02:04.814Z,11.75
2023-03-31T18:04:36.390Z,11.73
2023-03-31T18:07:07.497Z,11.70
2023-03-31T18:09:38.026Z,11.65
2023-03-31T18:12:08.660Z,11.62
2023-03-31T18:14:39.557Z,11.60
2023-03-31T18:17:14.632Z,11.57
2023-03-31T18:19:45.478Z,11.54
2023-03-31T18:22:15.981Z,11.48
2023-03-31T18:24:47.325Z,11.43
2023-03-31T18:27:17.751Z,11.38
2023-03-31T18:29:48.231Z,11.30
2023-03-31T18:32:18.923Z,11.22
2023-03-31T18:34:50.421Z,11.17
2023-03-31T18:37:21.597Z,11.14
2023-03-31T18:39:52.404Z,11.11
2023-03-31T18:42:25.740Z,11.09
2023-03-31T18:44:56.653Z,11.08
2023-03-31T18:47:27.508Z,11.06
2023-03-31T18:49:58.413Z,11.06
2023-03-31T18:52:29.025Z,11.05
2023-03-31T18:54:59.934Z,11.05
2023-03-31T18:57:31.441Z,11.04
2023-03-31T19:00:03.744Z,11.02
2023-03-31T19:02:34.958Z,11.00
2023-03-31T19:05:05.854Z,11.01
2023-03-31T19:07:36.880Z,10.99
2023-03-31T19:10:08.973Z,10.98
2023-03-31T19:12:39.458Z,10.95
2023-03-31T19:15:11.797Z,10.93
2023-03-31T19:17:42.454Z,10.93
2023-03-31T19:20:16.608Z,10.92
2023-03-31T19:22:49.373Z,10.92
2023-03-31T19:25:21.515Z,10.92
2023-03-31T19:27:51.968Z,10.91
2023-03-31T19:30:25.010Z,10.90
2023-03-31T19:32:55.927Z,10.90
2023-03-31T19:35:27.358Z,10.90
2023-03-31T19:37:58.776Z,10.90
2023-03-31T19:40:29.676Z,10.88
2023-03-31T19:43:00.661Z,10.86
2023-03-31T19:45:31.458Z,10.84
2023-03-31T19:48:02.740Z,10.83
2023-03-31T19:50:33.500Z,10.80
2023-03-31T19:53:04.336Z,10.79
2023-03-31T19:55:37.493Z,10.77
2023-03-31T19:58:07.973Z,10.76
2023-03-31T20:00:39.144Z,10.74
2023-03-31T20:03:10.555Z,10.72
2023-03-31T20:05:41.154Z,10.70
2023-03-31T20:08:11.644Z,10.68
2023-03-31T20:10:42.962Z,10.66
2023-03-31T20:13:13.549Z,10.64
2023-03-31T20:15:44.289Z,10.61
2023-03-31T20:18:14.860Z,10.61
2023-03-31T20:20:46.040Z,10.60
2023-03-31T20:23:17.318Z,10.58
2023-03-31T20:25:48.131Z,10.58
2023-03-31T20:28:19.359Z,10.57
2023-03-31T20:30:50.325Z,10.54
2023-03-31T20:33:20.774Z,10.55
2023-03-31T20:35:59.715Z,10.53
2023-03-31T20:38:30.294Z,10.49
2023-03-31T20:41:01.374Z,10.46
2023-03-31T20:43:31.828Z,10.44
2023-03-31T20:46:04.512Z,10.43
2023-03-31T20:48:37.865Z,10.43
2023-03-31T20:51:09.775Z,10.42
2023-03-31T20:53:43.415Z,10.40
2023-03-31T20:56:15.557Z,10.38
2023-03-31T20:58:46.230Z,10.37
2023-03-31T21:01:17.998Z,10.36
2023-03-31T21:03:48.836Z,10.34
2023-03-31T21:06:20.528Z,10.35
2023-03-31T21:08:54.616Z,10.34
2023-03-31T21:11:25.597Z,10.34
2023-03-31T21:13:56.382Z,10.34
2023-03-31T21:16:26.910Z,10.35
2023-03-31T21:18:59.286Z,10.35
2023-03-31T21:21:30.676Z,10.34
2023-03-31T21:24:01.488Z,10.34
2023-03-31T21:26:32.147Z,10.33
2023-03-31T21:29:03.013Z,10.31
2023-03-31T21:31:33.509Z,10.28
2023-03-31T21:34:04.524Z,10.28
2023-03-31T21:36:35.379Z,10.26
2023-03-31T21:39:06.428Z,10.26
2023-03-31T21:41:37.728Z,10.24
2023-03-31T21:44:10.031Z,10.23
2023-03-31T21:46:41.251Z,10.22
2023-03-31T21:49:11.817Z,10.20
2023-03-31T21:51:42.309Z,10.19
2023-03-31T21:54:12.981Z,10.19
2023-03-31T21:56:43.479Z,10.16
2023-03-31T21:59:14.228Z,10.15
2023-03-31T22:01:44.763Z,10.15
2023-03-31T22:04:15.591Z,10.15
2023-03-31T22:06:47.007Z,10.14
2023-03-31T22:09:17.700Z,10.13
2023-03-31T22:11:48.637Z,10.12
2023-03-31T22:14:19.460Z,10.10
2023-03-31T22:16:50.660Z,10.09
2023-03-31T22:19:22.137Z,10.08
2023-03-31T22:21:53.665Z,10.07
2023-03-31T22:24:24.402Z,10.07
2023-03-31T22:26:55.298Z,10.05
2023-03-31T22:29:25.845Z,10.05
2023-03-31T22:31:57.545Z,10.04
2023-03-31T22:34:28.499Z,10.04
2023-03-31T22:36:59.000Z,10.03
2023-03-31T22:39:29.553Z,10.01
2023-03-31T22:42:00.513Z,10.00
2023-03-31T22:44:32.350Z,10.01
2023-03-31T22:47:03.402Z,10.00
2023-03-31T22:49:34.074Z,10.00
2023-03-31T22:52:04.616Z,9.99
2023-03-31T22:54:35.044Z,9.99
2023-03-31T22:57:05.855Z,9.99
2023-03-31T22:59:37.329Z,9.99
2023-03-31T23:02:07.829Z,9.99
2023-03-31T23:04:38.294Z,9.99
2023-03-31T23:07:09.061Z,10.00
2023-03-31T23:09:39.993Z,10.00
2023-03-31T23:12:10.872Z,9.99
2023-03-31T23:14:41.684Z,9.99
2023-03-31T23:17:12.294Z,9.99
2023-03-31T23:19:43.163Z,9.98
2023-03-31T23:22:13.989Z,9.99
2023-03-31T23:24:44.686Z,9.99
2023-03-31T23:27:15.449Z,9.98
2023-03-31T23:29:46.706Z,9.99
2023-03-31T23:32:17.300Z,9.98
2023-03-31T23:34:48.138Z,9.97
2023-03-31T23:37:18.969Z,9.98
2023-03-31T23:39:49.715Z,9.98
2023-03-31T23:42:20.850Z,9.98
2023-03-31T23:44:52.388Z,9.98
2023-03-31T23:47:23.040Z,9.98
2023-03-31T23:49:54.170Z,9.98
2023-03-31T23:52:25.630Z,9.98
2023-03-31T23:54:56.093Z,9.99
2023-03-31T23:57:26.516Z,9.99
2023-03-31T23:59:56.949Z,10.00
